Time;durP1;ratioP1;P1;durP2;ratioP2;P2;SDS_P1;SDS_P2;PMS_P1;PMS_P2;Temp;Humidity;BMP_temperature;BMP_pressure;BME280_temperature;BME280_humidity;BME280_pressure;Samples;Min_cycle;Max_cycle;Signal;HPM_P1;HPM_P2
2022/07/18 00:00:09;;;;;;;7.10;4.63;;;;;;;16.80;75.46;99887.34;4847586;29;20049;-81
2022/07/18 00:02:35;;;;;;;8.07;4.28;;;;;;;16.85;75.56;99890.69;4863651;29;20108;-81
2022/07/18 00:05:03;;;;;;;7.18;4.32;;;;;;;16.64;75.11;99858.13;4879134;29;20048;-83
2022/07/18 00:07:29;;;;;;;6.28;4.38;;;;;;;16.60;75.08;99841.59;4848341;29;20056;-80
2022/07/18 00:09:56;;;;;;;6.15;4.38;;;;;;;16.51;74.82;99831.41;4871007;29;20063;-80
2022/07/18 00:12:23;;;;;;;9.13;4.95;;;;;;;16.85;74.77;99888.06;4858083;29;20059;-81
2022/07/18 00:14:49;;;;;;;8.32;4.70;;;;;;;16.68;74.78;99860.59;4872348;29;20049;-82
2022/07/18 00:17:17;;;;;;;7.22;4.82;;;;;;;16.85;74.86;99893.31;4864931;29;20527;-82
2022/07/18 00:19:46;;;;;;;5.82;4.35;;;;;;;16.38;74.50;99815.19;4866217;29;20077;-81
2022/07/18 00:22:13;;;;;;;6.40;4.22;;;;;;;16.78;74.46;99869.03;4879927;29;20104;-81
2022/07/18 00:24:40;;;;;;;6.18;4.38;;;;;;;16.35;74.23;99805.63;4849762;29;20056;-82
2022/07/18 00:27:07;;;;;;;6.35;4.30;;;;;;;16.64;74.31;99855.50;4882260;29;20546;-83
2022/07/18 00:29:36;;;;;;;7.97;4.55;;;;;;;16.39;74.19;99801.16;4863602;29;20052;-81
2022/07/18 00:32:05;;;;;;;5.80;4.35;;;;;;;16.77;74.02;99869.09;4879933;29;20096;-81
2022/07/18 00:34:35;;;;;;;4.65;3.92;;;;;;;16.77;73.89;99875.19;4864601;29;20104;-81
2022/07/18 00:37:02;;;;;;;6.22;4.47;;;;;;;16.91;73.79;99898.38;4884495;29;20045;-79
2022/07/18 00:39:30;;;;;;;6.75;4.15;;;;;;;16.79;73.90;99873.38;4851150;29;20060;-79
2022/07/18 00:41:56;;;;;;;6.15;4.20;;;;;;;16.95;73.55;99893.88;4852156;29;20088;-81
2022/07/18 00:44:25;;;;;;;5.35;3.78;;;;;;;16.98;73.30;99902.56;4870060;29;20032;-79
2022/07/18 00:46:55;;;;;;;5.38;4.20;;;;;;;16.89;73.18;99886.19;4891687;29;20072;-80
2022/07/18 00:49:23;;;;;;;5.18;3.95;;;;;;;16.98;73.26;99893.81;4878960;29;20065;-81
2022/07/18 00:51:49;;;;;;;7.20;3.97;;;;;;;16.76;73.10;99857.72;4871474;29;20576;-80
2022/07/18 00:54:16;;;;;;;6.60;3.40;;;;;;;17.01;73.03;99901.59;4862328;29;20040;-80
2022/07/18 00:56:44;;;;;;;8.30;4.28;;;;;;;17.03;72.94;99894.53;4878879;29;20048;-80
2022/07/18 00:59:12;;;;;;;6.45;3.60;;;;;;;17.08;72.70;99902.25;4878184;29;20056;-80
2022/07/18 01:01:43;;;;;;;5.68;3.63;;;;;;;16.74;72.41;99838.50;4848211;29;20103;-83
2022/07/18 01:04:28;;;;;;;9.68;3.33;;;;;;;17.15;72.45;99895.88;4863681;29;20576;-84
2022/07/18 01:06:59;;;;;;;5.65;3.58;;;;;;;16.78;71.83;99840.13;4863070;29;20041;-83
2022/07/18 01:09:26;;;;;;;8.27;3.72;;;;;;;16.27;72.01;99766.50;4862630;29;20060;-81
2022/07/18 01:11:55;;;;;;;4.60;3.30;;;;;;;16.66;72.02;99835.31;4879591;29;20049;-82
2022/07/18 01:14:22;;;;;;;7.10;3.50;;;;;;;16.33;71.90;99796.09;4865438;29;20045;-81
2022/07/18 01:16:58;;;;;;;3.97;3.00;;;;;;;16.92;71.83;99884.34;4881110;29;20057;-82
2022/07/18 01:19:24;;;;;;;5.93;3.45;;;;;;;16.96;71.59;99886.00;4862469;29;20112;-80
2022/07/18 01:21:50;;;;;;;6.57;3.67;;;;;;;17.03;71.43;99902.41;4861163;29;20048;-80
2022/07/18 01:24:16;;;;;;;4.25;3.35;;;;;;;16.97;71.64;99905.22;4876793;29;20131;-81
2022/07/18 01:26:43;;;;;;;6.20;3.28;;;;;;;16.74;71.11;99875.28;4861807;29;20185;-80
2022/07/18 01:29:10;;;;;;;4.90;3.47;;;;;;;16.39;71.29;99824.78;4862909;29;20641;-80
2022/07/18 01:31:36;;;;;;;4.30;3.40;;;;;;;16.59;71.36;99847.75;4862376;29;20654;-80
2022/07/18 01:34:02;;;;;;;4.40;2.90;;;;;;;16.83;71.46;99864.50;4877689;29;20040;-81
2022/07/18 01:36:29;;;;;;;4.57;3.30;;;;;;;16.30;71.04;99764.69;4878685;29;20056;-81
2022/07/18 01:38:55;;;;;;;6.18;3.22;;;;;;;16.78;71.02;99850.63;4861630;29;20132;-80
2022/07/18 01:42:00;;;;;;;3.47;3.13;;;;;;;17.11;70.91;99905.59;4850509;29;20140;-80
2022/07/18 01:48:58;;;;;;;4.15;3.10;;;;;;;17.11;70.36;99883.72;4823286;29;20060;-79
2022/07/18 01:52:23;;;;;;;4.70;3.50;;;;;;;17.27;70.46;99894.59;4882374;29;20073;-81
2022/07/18 01:55:33;;;;;;;6.25;3.20;;;;;;;16.58;70.12;99780.38;4776182;29;20479;-81
2022/07/18 01:59:07;;;;;;;6.90;4.03;;;;;;;16.58;70.18;99766.41;4804485;29;20054;-81
2022/07/18 02:01:51;;;;;;;6.30;3.40;;;;;;;16.79;70.12;99793.69;4803157;29;20042;-82
2022/07/18 02:04:17;;;;;;;5.22;3.30;;;;;;;17.34;69.92;99890.81;4802364;29;20153;-80
2022/07/18 02:06:44;;;;;;;7.07;3.88;;;;;;;17.32;69.86;99879.50;4772885;29;20046;-80
2022/07/18 02:09:11;;;;;;;4.10;3.47;;;;;;;17.25;69.86;99867.47;4825588;29;20520;-80
2022/07/18 02:11:37;;;;;;;4.43;3.67;;;;;;;17.22;69.65;99872.84;4861724;29;20597;-80
2022/07/18 02:14:05;;;;;;;6.80;3.60;;;;;;;17.28;69.76;99870.00;4862476;29;20136;-80
2022/07/18 02:16:32;;;;;;;4.65;3.40;;;;;;;17.31;69.63;99878.63;4846042;29;20052;-81
2022/07/18 02:18:58;;;;;;;6.00;4.05;;;;;;;17.34;69.72;99877.66;4861592;29;20410;-81
2022/07/18 02:21:24;;;;;;;6.15;3.40;;;;;;;17.28;69.85;99870.00;4849693;29;20041;-82
2022/07/18 02:23:54;;;;;;;4.95;4.05;;;;;;;17.26;69.76;99870.03;4860985;29;20207;-80
2022/07/18 02:26:20;;;;;;;7.15;4.07;;;;;;;17.30;69.17;99889.22;4861726;29;20041;-79
2022/07/18 02:28:46;;;;;;;7.53;3.97;;;;;;;17.31;69.32;99901.47;4861051;29;20052;-80
2022/07/18 02:31:12;;;;;;;5.38;4.03;;;;;;;17.15;69.37;99880.09;4861491;29;20045;-82
2022/07/18 02:33:39;;;;;;;8.80;4.00;;;;;;;17.19;69.48;99888.72;4861567;29;20109;-81
2022/07/18 02:36:06;;;;;;;4.82;3.65;;;;;;;17.04;69.84;99861.19;4862188;29;20041;-80
2022/07/18 02:38:32;;;;;;;9.32;4.28;;;;;;;17.04;69.53;99871.69;4861104;29;20125;-81
2022/07/18 02:40:58;;;;;;;7.25;4.20;;;;;;;16.99;68.84;99896.38;4845789;29;20045;-80
2022/07/18 02:43:25;;;;;;;7.10;5.40;;;;;;;16.72;69.54;99877.09;4863473;29;20049;-81
2022/07/18 02:45:51;;;;;;;7.32;4.97;;;;;;;16.67;70.15;99886.91;4864202;29;20053;-81
2022/07/18 02:48:17;;;;;;;6.55;4.78;;;;;;;16.72;70.75;99900.75;4848745;29;20048;-80
2022/07/18 02:50:43;;;;;;;5.72;4.03;;;;;;;16.77;71.14;99898.84;4861079;29;20053;-79
2022/07/18 02:53:10;;;;;;;8.93;4.47;;;;;;;16.82;70.91;99890.78;4862902;29;20185;-82
2022/07/18 02:55:36;;;;;;;6.63;4.35;;;;;;;16.87;70.83;99896.75;4860869;29;20041;-79
2022/07/18 02:58:02;;;;;;;8.00;4.93;;;;;;;16.79;71.19;99886.50;4861949;29;20045;-80
2022/07/18 03:00:29;;;;;;;7.70;4.60;;;;;;;16.80;70.87;99900.50;4860578;29;20536;-79
2022/07/18 03:02:55;;;;;;;8.45;5.10;;;;;;;16.60;70.91;99875.75;4860541;29;20517;-82
2022/07/18 03:05:21;;;;;;;6.55;4.65;;;;;;;16.49;71.72;99865.59;4845799;29;20041;-78
2022/07/18 03:07:47;;;;;;;6.25;4.68;;;;;;;16.78;71.87;99894.44;4861311;29;20528;-80
2022/07/18 03:10:13;;;;;;;7.05;4.60;;;;;;;16.81;71.60;99886.44;4861439;29;20120;-80
2022/07/18 03:12:42;;;;;;;6.60;4.60;;;;;;;16.95;71.96;99896.50;4860634;29;20045;-79
2022/07/18 03:15:09;;;;;;;6.25;4.43;;;;;;;17.02;71.73;99898.06;4874903;29;20046;-80
2022/07/18 03:17:35;;;;;;;5.32;4.53;;;;;;;16.98;71.71;99883.28;4860693;29;20048;-79
2022/07/18 03:20:01;;;;;;;16.63;7.30;;;;;;;17.00;71.43;99879.69;4861710;29;20423;-81
2022/07/18 03:22:29;;;;;;;9.80;6.65;;;;;;;17.05;71.30;99882.19;4860175;29;20141;-80
2022/07/18 03:24:58;;;;;;;9.30;5.75;;;;;;;17.10;71.42;99889.91;4859654;29;20124;-82
2022/07/18 03:27:24;;;;;;;7.70;4.45;;;;;;;17.12;71.33;99891.56;4845305;29;20065;-80
2022/07/18 03:29:51;;;;;;;7.57;4.80;;;;;;;17.05;71.37;99874.31;4875084;29;20488;-79
2022/07/18 03:32:17;;;;;;;9.23;5.32;;;;;;;17.09;71.28;99881.16;4859561;29;20510;-80
2022/07/18 03:34:43;;;;;;;7.43;5.00;;;;;;;17.15;71.20;99885.34;4858676;29;20046;-80
2022/07/18 03:37:09;;;;;;;7.10;4.53;;;;;;;17.00;71.40;99844.69;4860392;29;20055;-79
2022/07/18 03:39:38;;;;;;;8.48;4.40;;;;;;;17.13;71.26;99864.34;4876135;29;20098;-79
2022/07/18 03:42:04;;;;;;;8.40;5.45;;;;;;;17.20;71.23;99865.03;4864551;29;20042;-81
2022/07/18 03:44:30;;;;;;;6.20;5.07;;;;;;;17.15;71.30;99854.66;4883499;29;20057;-82
2022/07/18 03:46:57;;;;;;;9.80;5.00;;;;;;;17.33;71.26;99880.34;4863297;29;20084;-78
2022/07/18 03:49:23;;;;;;;6.93;5.05;;;;;;;17.20;71.05;99840.50;4863826;29;20120;-80
2022/07/18 03:51:49;;;;;;;8.77;5.57;;;;;;;17.06;71.07;99820.81;4877102;29;20041;-81
2022/07/18 03:54:19;;;;;;;12.23;5.93;;;;;;;17.59;71.18;99893.44;4847070;29;20057;-82
2022/07/18 03:56:45;;;;;;;8.60;6.03;;;;;;;17.65;70.88;99896.75;4863024;29;20037;-82
2022/07/18 03:59:23;;;;;;;11.68;6.70;;;;;;;17.23;70.82;99819.34;4864461;29;20073;-82
2022/07/18 04:01:49;;;;;;;13.60;7.30;;;;;;;17.61;70.94;99891.59;4867644;29;20037;-80
2022/07/18 04:04:16;;;;;;;18.52;7.25;;;;;;;17.24;71.13;99855.25;4868516;29;20048;-81
2022/07/18 04:06:51;;;;;;;13.10;5.75;;;;;;;16.79;70.97;99757.75;4861784;29;20045;-83
2022/07/18 04:09:20;;;;;;;7.38;5.53;;;;;;;16.94;71.19;99753.75;4902653;29;20037;-82
2022/07/18 04:11:50;;;;;;;6.88;4.88;;;;;;;17.43;70.99;99816.84;4883667;29;20121;-79
2022/07/18 04:14:48;;;;;;;7.57;5.07;;;;;;;18.02;70.98;99890.13;4853078;29;20096;-82
2022/07/18 04:17:14;;;;;;;7.57;4.90;;;;;;;17.24;70.58;99734.28;4870201;29;20033;-81
2022/07/18 04:19:41;;;;;;;10.23;5.63;;;;;;;17.73;70.45;99798.19;4870318;29;20051;-80
2022/07/18 04:22:10;;;;;;;9.00;6.90;;;;;;;18.38;70.12;99849.25;4869793;29;20041;-82
2022/07/18 04:24:40;;;;;;;8.18;5.20;;;;;;;18.66;69.83;99875.31;4872241;29;20509;-80
2022/07/18 04:27:09;;;;;;;9.43;5.28;;;;;;;18.75;69.71;99842.44;4855567;29;20069;-83
2022/07/18 04:29:37;;;;;;;7.65;5.05;;;;;;;19.12;68.85;99843.53;4865552;29;20044;-79
2022/07/18 04:32:05;;;;;;;5.72;4.50;;;;;;;19.31;68.47;99833.03;4864303;29;20064;-81
2022/07/18 04:34:32;;;;;;;7.85;4.90;;;;;;;19.49;68.01;99823.44;4880048;29;20053;-80
2022/07/18 04:37:01;;;;;;;7.03;4.50;;;;;;;19.85;67.60;99840.28;4863207;29;20052;-81
2022/07/18 04:39:29;;;;;;;7.03;4.47;;;;;;;19.96;67.07;99850.38;4847878;29;20040;-79
2022/07/18 04:41:56;;;;;;;4.80;4.28;;;;;;;19.98;66.63;99830.00;4848220;29;20072;-79
2022/07/18 04:44:22;;;;;;;5.13;4.45;;;;;;;20.13;65.83;99849.56;4863488;29;20048;-81
2022/07/18 04:46:48;;;;;;;8.35;4.30;;;;;;;19.98;65.66;99820.31;4848888;29;20043;-82
2022/07/18 04:49:16;;;;;;;4.75;4.10;;;;;;;20.23;65.14;99853.47;4864030;29;20045;-82
2022/07/18 04:51:42;;;;;;;6.53;4.30;;;;;;;19.84;65.22;99777.84;4848275;29;20037;-81
2022/07/18 04:54:46;;;;;;;6.55;4.00;;;;;;;20.25;64.90;99859.53;4864195;29;20537;-80
2022/07/18 04:57:14;;;;;;;5.15;4.22;;;;;;;20.13;64.84;99838.97;4848914;29;20116;-82
2022/07/18 04:59:47;;;;;;;5.88;4.20;;;;;;;19.56;64.48;99764.16;4851669;29;20052;-81
2022/07/18 05:02:33;;;;;;;5.22;4.28;;;;;;;19.26;64.19;99730.38;4851143;29;20063;-82
2022/07/18 05:05:27;;;;;;;8.48;4.47;;;;;;;19.97;64.11;99845.00;4861881;29;20565;-83
2022/07/18 05:08:15;;;;;;;7.47;4.10;;;;;;;19.46;63.79;99765.53;4860807;29;20053;-82
2022/07/18 05:12:23;;;;;;;7.95;4.63;;;;;;;20.28;63.77;99879.66;4868082;29;20105;-84
2022/07/18 05:15:08;;;;;;;7.95;5.03;;;;;;;20.29;63.22;99882.25;4854816;29;20068;-82
2022/07/18 05:17:34;;;;;;;6.57;4.43;;;;;;;20.09;63.19;99864.69;4862969;29;20049;-82
2022/07/18 05:20:01;;;;;;;5.78;4.78;;;;;;;20.14;62.99;99869.75;4860950;29;20048;-82
2022/07/18 05:22:29;;;;;;;7.68;5.32;;;;;;;20.24;63.10;99878.97;4843843;29;20088;-81
2022/07/18 05:24:55;;;;;;;9.13;5.28;;;;;;;20.34;62.45;99858.25;4859570;29;20037;-80
2022/07/18 05:27:21;;;;;;;10.80;5.75;;;;;;;20.55;62.68;99881.91;4860779;29;20053;-81
2022/07/18 05:29:48;;;;;;;7.15;4.97;;;;;;;20.64;62.74;99856.78;4861179;29;20061;-82
2022/07/18 05:32:14;;;;;;;7.85;4.30;;;;;;;20.97;62.25;99871.91;4862026;29;20711;-82
2022/07/18 05:34:47;;;;;;;7.75;4.63;;;;;;;21.06;61.74;99860.88;4847344;29;20239;-81
2022/07/18 05:37:15;;;;;;;8.25;4.32;;;;;;;21.01;61.63;99817.91;4863065;29;20080;-85
2022/07/18 05:39:41;;;;;;;8.00;4.47;;;;;;;21.42;61.06;99854.56;4846017;29;20447;-81
2022/07/18 05:42:07;;;;;;;8.77;5.40;;;;;;;21.37;60.28;99807.19;4860198;29;20529;-85
2022/07/18 05:44:33;;;;;;;8.27;4.68;;;;;;;21.95;59.67;99847.34;4860931;29;20157;-85
2022/07/18 05:47:00;;;;;;;7.80;5.15;;;;;;;21.83;58.92;99787.09;4867983;29;20056;-80
2022/07/18 05:49:29;;;;;;;8.10;5.00;;;;;;;22.33;57.97;99810.81;4879917;29;20085;-84
2022/07/18 05:51:56;;;;;;;7.15;4.68;;;;;;;22.51;58.30;99780.59;4886197;29;20045;-83
2022/07/18 05:54:22;;;;;;;8.25;5.28;;;;;;;23.77;57.88;99772.97;4880409;29;20048;-82
2022/07/18 05:56:52;;;;;;;7.50;5.00;;;;;;;24.66;55.89;99752.06;4868837;29;20132;-82
2022/07/18 05:59:20;;;;;;;6.78;5.30;;;;;;;25.43;53.64;99823.13;4866042;29;20054;-83
2022/07/18 06:01:47;;;;;;;11.32;5.47;;;;;;;24.89;52.54;99794.91;4850881;29;20510;-83
2022/07/18 06:04:14;;;;;;;8.07;5.50;;;;;;;24.95;53.31;99813.94;4866705;29;20041;-81
2022/07/18 06:06:40;;;;;;;7.88;5.78;;;;;;;24.98;52.67;99804.88;4862519;29;20041;-82
2022/07/18 06:09:08;;;;;;;9.77;6.22;;;;;;;25.01;52.64;99779.88;4860964;29;20053;-83
2022/07/18 06:11:35;;;;;;;10.82;5.47;;;;;;;25.61;52.31;99799.63;4878298;29;20064;-84
2022/07/18 06:14:04;;;;;;;12.15;5.13;;;;;;;25.89;51.54;99794.94;4845817;29;20046;-82
2022/07/18 06:16:31;;;;;;;8.10;5.07;;;;;;;26.03;49.52;99804.59;4846172;29;20106;-84
2022/07/18 06:18:58;;;;;;;8.00;4.70;;;;;;;25.81;49.42;99803.50;4876720;29;20046;-82
2022/07/18 06:21:24;;;;;;;7.43;4.90;;;;;;;25.66;48.78;99809.97;4862765;29;20067;-83
2022/07/18 06:23:50;;;;;;;7.20;4.82;;;;;;;25.64;48.29;99814.53;4876847;29;20116;-81
2022/07/18 06:26:16;;;;;;;7.18;4.60;;;;;;;25.83;47.76;99812.25;4861772;29;20084;-81
2022/07/18 06:28:42;;;;;;;7.72;5.07;;;;;;;26.26;47.04;99802.06;4862899;29;20061;-81
2022/07/18 06:31:11;;;;;;;8.88;5.78;;;;;;;26.80;46.45;99789.16;4861949;29;20578;-84
2022/07/18 06:33:37;;;;;;;8.13;4.85;;;;;;;27.63;45.00;99771.97;4877178;29;20045;-85
2022/07/18 06:36:05;;;;;;;7.07;4.45;;;;;;;29.06;43.51;99745.88;4862640;29;20090;-82
2022/07/18 06:38:31;;;;;;;5.55;3.72;;;;;;;30.44;40.31;99746.97;4862873;29;20049;-83
2022/07/18 06:40:58;;;;;;;6.55;4.00;;;;;;;31.31;38.25;99738.81;4862239;29;20069;-84
2022/07/18 06:43:24;;;;;;;6.90;4.15;;;;;;;31.70;36.52;99714.34;4861620;29;20068;-84
2022/07/18 06:45:52;;;;;;;6.72;4.03;;;;;;;32.07;35.50;99779.78;4862072;29;20052;-84
2022/07/18 06:48:18;;;;;;;6.70;4.38;;;;;;;31.70;35.53;99765.44;4863173;29;20514;-83
2022/07/18 06:50:44;;;;;;;3.63;3.30;;;;;;;31.57;35.75;99741.59;4864713;29;20041;-83
2022/07/18 06:53:10;;;;;;;3.17;2.53;;;;;;;31.83;35.05;99792.84;4866163;29;20049;-82
2022/07/18 06:55:37;;;;;;;2.33;2.10;;;;;;;31.46;33.69;99779.47;4865745;29;20132;-82
2022/07/18 06:58:03;;;;;;;7.75;2.22;;;;;;;30.60;34.07;99760.66;4866057;29;20041;-81
2022/07/18 07:05:19;;;;;;;4.38;2.40;;;;;;;28.63;36.04;99769.16;4864148;29;20042;-81
2022/07/18 07:07:45;;;;;;;2.90;2.30;;;;;;;28.22;36.00;99700.31;4861295;29;20053;-81
2022/07/18 07:15:11;;;;;;;3.10;2.72;;;;;;;29.01;35.51;99763.19;4772513;30;20047;-83
2022/07/18 07:17:39;;;;;;;4.43;2.80;;;;;;;28.82;35.33;99715.75;4790404;29;20053;-83
2022/07/18 07:20:07;;;;;;;4.10;2.85;;;;;;;29.00;35.66;99741.94;4863054;29;20038;-80
2022/07/18 07:23:07;;;;;;;4.07;2.90;;;;;;;29.07;35.36;99793.13;4846575;29;20045;-81
2022/07/18 07:26:28;;;;;;;6.07;3.10;;;;;;;27.73;34.77;99654.47;4836525;29;20054;-81
2022/07/18 07:29:46;;;;;;;3.80;2.40;;;;;;;28.37;37.13;99829.25;4833187;29;20049;-84
2022/07/18 07:32:54;;;;;;;3.25;2.47;;;;;;;27.72;36.83;99675.97;4846888;29;20049;-83
2022/07/18 07:39:13;;;;;;;3.28;2.40;;;;;;;28.31;35.79;99705.88;4854191;29;20485;-81
2022/07/18 07:41:53;;;;;;;4.30;2.40;;;;;;;28.77;34.94;99696.59;4863349;29;20045;-81
2022/07/18 07:44:29;;;;;;;3.15;2.20;;;;;;;29.65;34.39;99730.84;4864024;29;20144;-83
2022/07/18 07:51:17;;;;;;;4.88;2.33;;;;;;;32.45;31.81;99665.56;4798895;29;20234;-85
2022/07/18 07:54:30;;;;;;;5.88;2.33;;;;;;;33.42;30.51;99672.56;4857132;29;20079;-84
2022/07/18 07:57:37;;;;;;;6.63;2.30;;;;;;;33.67;29.85;99629.47;4845297;29;20053;-84
2022/07/18 08:08:02;;;;;;;3.15;1.55;;;;;;;35.44;27.64;99747.56;4826162;29;20068;-84
2022/07/18 08:11:18;;;;;;;;;;;;;;;;;;;;;
2022/07/18 08:14:09;;;;;;;5.72;2.28;;;;;;;38.77;24.43;99708.97;4835711;29;20058;-85
2022/07/18 08:16:35;;;;;;;5.25;2.40;;;;;;;39.47;23.07;99637.28;4859018;29;20156;-82
2022/07/18 08:23:38;;;;;;;2.50;1.73;;;;;;;43.15;20.48;99706.41;4847679;29;20126;-84
2022/07/18 08:26:20;;;;;;;2.80;1.90;;;;;;;43.23;19.02;99642.38;4846842;29;20046;-83
2022/07/18 08:28:52;;;;;;;3.53;2.00;;;;;;;42.36;18.77;99654.34;4845600;29;20041;-83
2022/07/18 08:31:19;;;;;;;4.82;2.08;;;;;;;41.82;19.10;99710.28;4849264;29;20053;-84
2022/07/18 08:33:46;;;;;;;4.50;1.90;;;;;;;41.84;19.43;99663.63;4848096;29;20074;-84
2022/07/18 08:40:38;;;;;;;4.40;1.70;;;;;;;45.98;16.83;99657.19;4810550;29;20657;-84
2022/07/18 08:43:04;;;;;;;1.95;1.67;;;;;;;46.87;15.80;99658.13;4809187;29;20057;-85
2022/07/18 08:45:30;;;;;;;2.80;1.88;;;;;;;46.99;15.45;99641.47;4847053;29;20065;-83
2022/07/18 08:47:57;;;;;;;2.67;1.70;;;;;;;47.25;14.80;99658.25;4851933;29;20106;-83
2022/07/18 08:50:23;;;;;;;2.53;1.67;;;;;;;47.55;14.89;99653.28;4853384;29;20038;-81
2022/07/18 08:52:53;;;;;;;2.05;1.50;;;;;;;46.88;14.55;99692.00;4852736;29;20050;-84
2022/07/18 08:55:23;;;;;;;3.10;1.50;;;;;;;45.04;15.20;99616.31;4859799;29;20050;-85
2022/07/18 08:57:49;;;;;;;2.38;1.58;;;;;;;43.68;16.07;99648.47;4859158;29;20410;-82
2022/07/18 09:00:16;;;;;;;2.35;1.50;;;;;;;42.52;16.62;99639.25;4871870;29;20038;-82
2022/07/18 09:02:43;;;;;;;1.70;1.35;;;;;;;41.87;17.16;99637.78;4861452;29;20098;-84
2022/07/18 09:05:20;;;;;;;2.22;1.63;;;;;;;42.50;17.20;99671.47;4861584;29;20030;-84
2022/07/18 09:07:47;;;;;;;1.48;1.38;;;;;;;43.30;16.48;99623.94;4854892;29;20053;-83
2022/07/18 09:10:14;;;;;;;1.45;1.30;;;;;;;44.49;15.70;99637.72;4852650;29;20054;-84
2022/07/18 09:13:01;;;;;;;2.05;1.35;;;;;;;43.94;15.92;99693.72;4876618;29;20062;-82
2022/07/18 09:15:59;;;;;;;1.30;1.20;;;;;;;42.86;16.44;99684.31;4878050;29;20052;-84
2022/07/18 09:18:46;;;;;;;1.65;1.55;;;;;;;41.02;17.58;99560.72;4877943;29;20048;-83
2022/07/18 09:21:25;;;;;;;1.63;1.52;;;;;;;40.39;17.89;99578.63;4896464;29;20038;-82
2022/07/18 09:23:54;;;;;;;3.72;1.30;;;;;;;40.45;18.25;99611.28;4880125;29;20041;-81
2022/07/18 09:26:40;;;;;;;2.28;1.48;;;;;;;40.66;17.73;99569.28;4875574;29;20044;-83
2022/07/18 09:29:06;;;;;;;2.35;1.50;;;;;;;41.50;17.98;99684.84;4852178;29;20582;-83
2022/07/18 09:32:04;;;;;;;2.95;1.52;;;;;;;41.29;17.13;99569.56;4865160;29;20041;-85
2022/07/18 09:34:42;;;;;;;1.50;1.30;;;;;;;41.97;17.58;99638.97;4865867;29;20477;-86
2022/07/18 09:37:28;;;;;;;;;;;;;;;;;;;;;
2022/07/18 09:40:39;;;;;;;3.72;1.60;;;;;;;40.89;17.65;99630.63;4852244;29;20060;-83
2022/07/18 09:43:14;;;;;;;3.65;1.65;;;;;;;40.50;17.77;99641.44;4887228;29;20045;-81
2022/07/18 09:45:55;;;;;;;1.98;1.60;;;;;;;39.21;18.85;99535.53;4869572;29;20057;-82
2022/07/18 09:48:27;;;;;;;;;;;;;;;39.57;18.88;99655.94;4869666;29;20531;-83
2022/07/18 09:51:50;;;;;;;1.50;1.40;;;;;;;39.19;18.94;99581.13;4848004;29;20406;-83
2022/07/18 09:55:20;;;;;;;2.55;1.50;;;;;;;39.35;18.65;99538.31;4792557;29;20455;-83
2022/07/18 09:58:09;;;;;;;2.93;1.50;;;;;;;40.65;17.98;99528.63;4788992;30;20047;-84
2022/07/18 10:00:46;;;;;;;2.88;1.42;;;;;;;41.53;17.76;99569.81;4790398;30;20055;-83
2022/07/18 10:04:14;;;;;;;2.15;1.55;;;;;;;42.33;17.39;99515.41;4760119;30;20055;-85
2022/07/18 10:06:44;;;;;;;2.65;1.80;;;;;;;44.01;15.89;99554.72;4851650;29;20065;-83
2022/07/18 10:09:19;;;;;;;1.85;1.40;;;;;;;44.57;14.95;99567.16;4852943;29;20045;-83
2022/07/18 10:12:07;;;;;;;1.80;1.50;;;;;;;45.25;14.61;99586.50;4882744;29;20049;-85
2022/07/18 10:14:41;;;;;;;4.03;1.70;;;;;;;45.59;14.53;99611.22;4863225;29;20069;-82
2022/07/18 10:17:20;;;;;;;3.70;1.63;;;;;;;44.95;14.32;99527.28;4848298;29;20557;-84
2022/07/18 10:19:54;;;;;;;3.15;1.60;;;;;;;43.23;15.00;99595.88;4863467;29;20166;-84
2022/07/18 10:22:25;;;;;;;1.50;1.40;;;;;;;41.56;15.53;99613.06;4862662;29;20057;-86
2022/07/18 10:24:54;;;;;;;2.13;1.30;;;;;;;39.97;16.90;99585.16;4846596;29;20045;-87
2022/07/18 10:31:18;;;;;;;2.58;2.38;;;;;;;37.83;18.12;99562.53;4873370;29;20057;-82
2022/07/18 10:34:07;;;;;;;2.20;2.00;;;;;;;36.51;19.07;99487.84;4861787;29;20049;-86
2022/07/18 10:36:38;;;;;;;3.35;2.25;;;;;;;36.41;19.91;99540.41;4827837;29;20078;-86
2022/07/18 10:39:19;;;;;;;2.78;1.80;;;;;;;36.13;20.39;99583.53;4864224;29;20060;-83
2022/07/18 10:41:57;;;;;;;1.60;1.50;;;;;;;35.82;20.45;99607.00;4846788;29;20073;-84
2022/07/18 10:44:28;;;;;;;2.42;1.60;;;;;;;35.37;21.51;99608.69;4866001;29;20057;-83
2022/07/18 10:49:57;;;;;;;3.95;1.80;;;;;;;34.53;22.55;99592.09;4862780;29;20037;-84
2022/07/18 10:52:28;;;;;;;4.03;1.80;;;;;;;34.05;22.59;99593.88;4861278;29;20143;-85
2022/07/18 10:55:22;;;;;;;3.33;1.73;;;;;;;33.72;23.89;99601.97;4862729;29;20045;-85
2022/07/18 10:57:55;;;;;;;2.45;1.73;;;;;;;33.40;24.31;99598.28;4862432;29;20136;-82
2022/07/18 11:00:49;;;;;;;2.38;1.60;;;;;;;32.97;24.71;99580.34;4848458;29;20049;-81
2022/07/18 11:03:19;;;;;;;2.45;1.92;;;;;;;32.95;24.69;99598.50;4865858;29;20052;-85
2022/07/18 11:05:56;;;;;;;4.23;2.20;;;;;;;32.03;25.00;99510.25;4878844;29;20045;-84
2022/07/18 11:09:23;;;;;;;2.78;1.90;;;;;;;30.94;25.39;99456.69;4867135;29;20140;-84
2022/07/18 11:12:42;;;;;;;2.92;1.90;;;;;;;31.48;25.81;99595.53;4872412;29;20056;-84
2022/07/18 11:15:15;;;;;;;2.60;1.55;;;;;;;30.35;26.39;99427.53;4833831;29;20053;-83
2022/07/18 11:17:59;;;;;;;2.05;1.35;;;;;;;31.06;26.82;99553.13;4881835;29;20064;-82
2022/07/18 11:20:57;;;;;;;2.70;1.50;;;;;;;31.16;26.50;99569.19;4848914;29;20064;-82
2022/07/18 11:23:31;;;;;;;1.75;1.50;;;;;;;31.18;26.25;99562.69;4817792;29;20144;-83
2022/07/18 11:26:03;;;;;;;1.75;1.65;;;;;;;30.43;26.99;99479.59;4865527;29;20100;-81
2022/07/18 11:28:50;;;;;;;4.65;1.80;;;;;;;30.69;27.16;99571.00;4864001;29;20429;-84
2022/07/18 11:31:42;;;;;;;3.75;1.88;;;;;;;30.23;27.39;99509.22;4873374;29;20116;-83
2022/07/18 11:34:24;;;;;;;2.38;1.60;;;;;;;30.13;27.87;99560.22;4874762;29;20525;-84
2022/07/18 11:37:01;;;;;;;4.00;1.77;;;;;;;29.97;28.19;99554.63;4860318;29;20197;-85
2022/07/18 11:39:36;;;;;;;2.40;1.70;;;;;;;29.61;28.10;99485.53;4850846;29;20037;-83
2022/07/18 11:42:18;;;;;;;2.95;1.92;;;;;;;29.32;28.25;99406.03;4852555;29;20101;-83
2022/07/18 11:45:25;;;;;;;3.20;1.88;;;;;;;29.12;28.59;99422.13;4840922;29;20053;-84
2022/07/18 11:48:08;;;;;;;3.08;1.70;;;;;;;29.59;28.57;99517.00;4845832;29;20179;-83
2022/07/18 11:54:48;;;;;;;3.35;2.08;;;;;;;28.56;30.03;99424.50;4841489;29;20157;-83
2022/07/18 11:57:33;;;;;;;3.13;1.77;;;;;;;28.42;29.86;99419.53;4829296;29;20537;-85
2022/07/18 12:00:43;;;;;;;2.85;2.08;;;;;;;28.51;30.06;99439.28;4859448;29;20486;-83
2022/07/18 12:03:23;;;;;;;2.10;1.75;;;;;;;29.20;29.79;99541.94;4791793;29;20061;-86
2022/07/18 12:06:09;;;;;;;2.72;1.50;;;;;;;28.38;29.62;99408.28;4843571;29;20147;-84
2022/07/18 12:08:43;;;;;;;2.75;1.52;;;;;;;28.88;29.44;99510.94;4858262;29;20057;-85
2022/07/18 12:11:35;;;;;;;1.98;1.60;;;;;;;28.94;29.15;99560.38;4843188;29;20434;-85
2022/07/18 12:14:08;;;;;;;2.50;1.67;;;;;;;28.78;29.91;99555.56;4843276;29;20037;-86
2022/07/18 12:19:37;;;;;;;3.95;1.80;;;;;;;28.61;30.39;99557.03;4877926;29;20045;-86
2022/07/18 12:22:03;;;;;;;2.25;1.50;;;;;;;28.37;30.68;99542.16;4862635;29;20068;-84
2022/07/18 12:24:56;;;;;;;1.75;1.58;;;;;;;28.15;30.61;99545.88;4847310;29;20048;-84
2022/07/18 12:28:25;;;;;;;1.83;1.50;;;;;;;27.75;30.59;99567.00;4863050;29;20101;-83
2022/07/18 12:30:57;;;;;;;2.33;1.40;;;;;;;27.03;31.03;99467.03;4816107;29;20533;-83
2022/07/18 12:33:40;;;;;;;2.53;1.60;;;;;;;26.11;31.09;99373.06;4877138;29;20148;-83
2022/07/18 12:36:07;;;;;;;2.17;1.60;;;;;;;26.76;31.74;99564.38;4865918;29;20048;-82
2022/07/18 12:38:39;;;;;;;2.15;1.70;;;;;;;26.27;32.53;99547.81;4854587;29;20041;-83
2022/07/18 12:41:05;;;;;;;1.70;1.58;;;;;;;25.67;33.46;99507.97;4886327;29;20505;-83
2022/07/18 12:43:41;;;;;;;3.60;1.60;;;;;;;25.04;33.44;99439.03;4865312;29;20051;-87
2022/07/18 12:46:16;;;;;;;2.42;1.98;;;;;;;24.60;33.97;99396.13;4864231;29;20060;-84
2022/07/18 12:48:47;;;;;;;6.78;1.95;;;;;;;24.95;34.52;99491.97;4863440;29;20500;-83
2022/07/18 12:51:14;;;;;;;8.02;2.08;;;;;;;25.21;34.76;99562.84;4864556;29;20037;-83
2022/07/18 12:53:45;;;;;;;3.90;2.20;;;;;;;24.79;35.06;99502.03;4848278;29;20049;-84
2022/07/18 12:56:27;;;;;;;2.72;2.20;;;;;;;24.65;35.56;99533.09;4863787;29;20236;-86
2022/07/18 12:58:53;;;;;;;;;;;;;;;24.64;36.47;99565.97;4863323;29;20049;-82
2022/07/18 13:01:19;;;;;;;3.22;2.20;;;;;;;24.41;36.82;99564.97;4879596;29;19930;-81
2022/07/18 13:03:49;;;;;;;4.60;2.33;;;;;;;24.04;37.08;99525.88;4863391;29;20044;-84